createdAt,value
2022-12-09T00:02:31.085Z,15.80
2022-12-09T00:07:52.322Z,15.20
2022-12-09T00:13:13.562Z,13.40
2022-12-09T00:18:35.364Z,13.05
2022-12-09T00:23:57.763Z,14.65
2022-12-09T00:29:18.499Z,15.20
2022-12-09T00:34:39.211Z,17.70
2022-12-09T00:40:02.401Z,18.02
2022-12-09T00:45:23.010Z,16.60
2022-12-09T00:50:45.671Z,15.40
2022-12-09T00:56:07.060Z,15.07
2022-12-09T01:01:29.138Z,16.13
2022-12-09T01:06:51.002Z,16.38
2022-12-09T01:12:11.707Z,17.23
2022-12-09T01:17:32.613Z,17.90
2022-12-09T01:22:53.733Z,16.83
2022-12-09T01:28:14.610Z,19.30
2022-12-09T01:33:35.610Z,20.70
2022-12-09T01:38:58.891Z,23.92
2022-12-09T01:44:27.282Z,20.08
2022-12-09T01:49:48.353Z,20.58
2022-12-09T01:55:10.299Z,16.48
2022-12-09T02:00:31.414Z,15.18
2022-12-09T02:05:53.420Z,13.75
2022-12-09T02:11:23.047Z,14.10
2022-12-09T02:17:06.151Z,14.38
2022-12-09T02:22:41.122Z,15.35
2022-12-09T02:28:25.352Z,14.93
2022-12-09T02:34:17.635Z,14.68
2022-12-09T02:39:55.067Z,15.50
2022-12-09T02:45:21.608Z,18.88
2022-12-09T02:50:49.612Z,22.27
2022-12-09T02:56:14.314Z,18.77
2022-12-09T03:01:50.021Z,17.67
2022-12-09T03:07:26.940Z,18.00
2022-12-09T03:12:56.325Z,17.48
2022-12-09T03:18:21.474Z,16.63
2022-12-09T03:23:46.276Z,16.00
2022-12-09T03:29:12.779Z,16.55
2022-12-09T03:34:38.838Z,17.20
2022-12-09T03:40:01.337Z,17.25
2022-12-09T03:45:24.861Z,16.13
2022-12-09T03:51:10.127Z,15.75
2022-12-09T03:56:41.310Z,16.80
2022-12-09T04:02:05.108Z,17.05
2022-12-09T04:07:26.719Z,16.38
2022-12-09T04:12:48.256Z,16.73
2022-12-09T04:18:09.696Z,15.80
2022-12-09T04:23:30.517Z,15.95
2022-12-09T04:28:51.483Z,15.63
2022-12-09T04:34:12.228Z,17.38
2022-12-09T04:39:33.077Z,15.95
2022-12-09T04:44:53.814Z,15.77
2022-12-09T04:50:15.210Z,15.13
2022-12-09T04:55:36.340Z,13.65
2022-12-09T05:00:58.142Z,14.73
2022-12-09T05:06:20.787Z,13.68
2022-12-09T05:11:42.143Z,11.68
2022-12-09T05:17:04.577Z,10.48
2022-12-09T05:22:25.528Z,10.98
2022-12-09T05:27:46.628Z,12.00
2022-12-09T05:33:08.395Z,11.52
2022-12-09T05:38:30.616Z,12.82
2022-12-09T05:43:52.107Z,12.65
2022-12-09T05:49:12.973Z,14.00
2022-12-09T05:54:34.581Z,12.15
2022-12-09T05:59:55.314Z,13.65
2022-12-09T06:05:16.331Z,13.02
2022-12-09T06:10:41.363Z,12.18
2022-12-09T06:16:04.397Z,12.10
2022-12-09T06:21:26.125Z,15.07
2022-12-09T06:26:47.111Z,15.93
2022-12-09T06:32:08.448Z,15.02
2022-12-09T06:37:29.835Z,14.93
2022-12-09T06:42:51.383Z,15.82
2022-12-09T06:48:12.661Z,14.98
2022-12-09T06:53:34.212Z,15.77
2022-12-09T06:58:54.962Z,15.90
2022-12-09T07:04:15.840Z,16.05
2022-12-09T07:09:37.023Z,17.33
2022-12-09T07:14:58.242Z,17.77
2022-12-09T07:20:19.533Z,18.38
2022-12-09T07:25:40.745Z,18.67
2022-12-09T07:31:02.496Z,18.10
2022-12-09T07:36:25.277Z,20.55
2022-12-09T07:41:48.593Z,13.18
2022-12-09T07:47:10.001Z,12.82
2022-12-09T07:52:31.314Z,12.18
2022-12-09T07:57:52.228Z,14.57
2022-12-09T08:03:13.948Z,12.50
2022-12-09T08:08:35.067Z,13.10
2022-12-09T08:13:58.429Z,12.00
2022-12-09T08:19:19.504Z,12.88
2022-12-09T08:24:40.900Z,12.90
2022-12-09T08:30:01.931Z,9.13
2022-12-09T08:35:23.706Z,11.20
2022-12-09T08:40:45.024Z,16.30
2022-12-09T08:46:06.432Z,11.90
2022-12-09T08:51:29.777Z,13.82
2022-12-09T08:56:53.638Z,11.73
2022-12-09T09:02:14.773Z,14.55
2022-12-09T09:07:37.246Z,11.68
2022-12-09T09:12:58.338Z,11.02
2022-12-09T09:18:19.678Z,16.58
2022-12-09T09:23:40.888Z,13.25
2022-12-09T09:29:01.551Z,9.85
2022-12-09T09:34:23.115Z,14.00
2022-12-09T09:39:44.765Z,11.23
2022-12-09T09:45:14.730Z,10.80
2022-12-09T09:50:59.101Z,12.45
2022-12-09T09:56:20.023Z,10.65
2022-12-09T10:01:44.104Z,13.95
2022-12-09T10:07:17.965Z,12.85
2022-12-09T10:13:12.304Z,13.98
2022-12-09T10:19:15.592Z,13.55
2022-12-09T10:24:40.720Z,9.85
2022-12-09T10:30:10.950Z,10.00
2022-12-09T10:35:33.762Z,10.20
2022-12-09T10:42:03.782Z,10.50
2022-12-09T10:47:28.237Z,11.15
2022-12-09T10:52:50.071Z,11.73
2022-12-09T10:58:15.753Z,10.88
2022-12-09T11:03:52.084Z,9.80
2022-12-09T11:09:25.195Z,11.52
2022-12-09T11:14:52.521Z,11.25
2022-12-09T11:20:14.362Z,9.70
2022-12-09T11:25:37.071Z,10.40
2022-12-09T11:36:59.102Z,9.20
2022-12-09T11:42:23.148Z,11.85
2022-12-09T11:53:34.019Z,11.70
2022-12-09T11:59:06.617Z,15.50
2022-12-09T12:04:39.744Z,14.55
2022-12-09T12:10:02.517Z,15.07
2022-12-09T12:15:32.371Z,13.63
2022-12-09T12:21:20.472Z,14.93
2022-12-09T12:27:02.115Z,13.15
2022-12-09T12:32:41.026Z,12.93
2022-12-09T12:38:30.875Z,14.90
2022-12-09T12:44:37.989Z,13.33
2022-12-09T12:50:22.841Z,13.95
2022-12-09T12:55:48.942Z,14.25
2022-12-09T13:01:30.660Z,12.35
2022-12-09T13:07:08.159Z,14.70
2022-12-09T13:12:56.657Z,14.50
2022-12-09T13:18:23.592Z,13.63
2022-12-09T13:24:13.623Z,13.77
2022-12-09T13:29:40.220Z,13.18
2022-12-09T13:35:13.651Z,14.20
2022-12-09T13:40:39.052Z,13.35
2022-12-09T13:46:01.131Z,14.57
2022-12-09T13:51:23.274Z,12.38
2022-12-09T13:56:47.721Z,13.88
2022-12-09T14:02:24.979Z,11.90
2022-12-09T14:08:21.982Z,12.10
2022-12-09T14:13:42.867Z,12.23
2022-12-09T14:19:45.079Z,12.88
2022-12-09T14:25:28.396Z,9.23
2022-12-09T14:30:54.634Z,15.82
2022-12-09T14:36:15.574Z,15.75
2022-12-09T14:42:01.448Z,15.82
2022-12-09T14:47:31.149Z,17.35
2022-12-09T14:52:57.618Z,16.13
2022-12-09T14:58:22.608Z,18.02
2022-12-09T15:03:59.959Z,18.48
2022-12-09T15:09:23.436Z,19.63
2022-12-09T15:14:45.326Z,17.20
2022-12-09T15:20:07.441Z,14.52
2022-12-09T15:25:28.905Z,19.15
2022-12-09T15:31:05.780Z,19.52
2022-12-09T15:36:32.888Z,19.92
2022-12-09T15:42:07.360Z,19.60
2022-12-09T15:47:36.574Z,19.48
2022-12-09T15:53:01.672Z,17.93
2022-12-09T15:58:27.326Z,20.45
2022-12-09T16:03:50.917Z,20.05
2022-12-09T16:09:18.014Z,18.13
2022-12-09T16:14:44.286Z,19.30
2022-12-09T16:20:33.130Z,19.27
2022-12-09T16:26:04.785Z,19.65
2022-12-09T16:31:28.306Z,15.35
2022-12-09T16:36:55.585Z,19.42
2022-12-09T16:42:30.850Z,18.95
2022-12-09T16:47:56.108Z,15.43
2022-12-09T16:53:20.429Z,20.20
2022-12-09T16:58:41.200Z,18.02
2022-12-09T17:04:10.494Z,20.13
2022-12-09T17:09:31.699Z,20.63
2022-12-09T17:14:54.105Z,19.15
2022-12-09T17:20:15.038Z,19.58
2022-12-09T17:25:35.710Z,18.33
2022-12-09T17:31:00.164Z,19.35
2022-12-09T17:36:20.935Z,20.70
2022-12-09T17:41:42.847Z,19.55
2022-12-09T17:47:04.045Z,19.70
2022-12-09T17:52:25.064Z,17.17
2022-12-09T17:57:49.812Z,18.27
2022-12-09T18:03:22.119Z,18.65
2022-12-09T18:08:48.706Z,19.40
2022-12-09T18:14:10.411Z,17.58
2022-12-09T18:19:31.874Z,18.33
2022-12-09T18:24:52.469Z,20.77
2022-12-09T18:30:13.405Z,18.33
2022-12-09T18:35:34.608Z,19.17
2022-12-09T18:41:01.218Z,19.20
2022-12-09T18:46:27.687Z,18.38
2022-12-09T18:51:50.944Z,21.15
2022-12-09T18:57:11.575Z,18.95
2022-12-09T19:02:32.525Z,27.23
2022-12-09T19:07:53.217Z,19.25
2022-12-09T19:13:14.089Z,19.65
2022-12-09T19:18:34.747Z,16.40
2022-12-09T19:23:56.445Z,17.20
2022-12-09T19:29:18.289Z,17.15
2022-12-09T19:34:39.013Z,18.77
2022-12-09T19:40:00.012Z,12.98
2022-12-09T19:45:20.726Z,16.13
2022-12-09T19:50:41.431Z,18.23
2022-12-09T19:56:04.796Z,13.82
2022-12-09T20:01:28.823Z,16.27
2022-12-09T20:06:49.748Z,16.65
2022-12-09T20:12:10.693Z,14.10
2022-12-09T20:17:31.573Z,16.20
2022-12-09T20:22:52.442Z,13.90
2022-12-09T20:28:13.319Z,15.45
2022-12-09T20:33:34.790Z,13.48
2022-12-09T20:38:58.897Z,16.85
2022-12-09T20:44:20.192Z,17.05
2022-12-09T20:49:40.742Z,17.67
2022-12-09T20:55:01.720Z,15.55
2022-12-09T21:00:23.611Z,15.15
2022-12-09T21:05:44.681Z,16.38
2022-12-09T21:11:08.118Z,16.65
2022-12-09T21:16:32.321Z,16.77
2022-12-09T21:21:54.490Z,15.60
2022-12-09T21:27:15.040Z,18.60
2022-12-09T21:32:35.691Z,16.52
2022-12-09T21:37:56.496Z,14.73
2022-12-09T21:43:17.137Z,16.75
2022-12-09T21:48:38.784Z,14.80
2022-12-09T21:53:59.749Z,16.45
2022-12-09T21:59:20.865Z,15.80
2022-12-09T22:04:41.822Z,15.20
2022-12-09T22:10:02.579Z,16.50
2022-12-09T22:15:23.362Z,15.80
2022-12-09T22:21:22.620Z,17.33
2022-12-09T22:26:25.841Z,14.15
2022-12-09T22:31:47.105Z,17.63
2022-12-09T22:37:35.176Z,17.38
2022-12-09T22:42:49.595Z,16.67
2022-12-09T22:48:10.259Z,16.90
2022-12-09T22:53:31.106Z,13.75
2022-12-09T22:58:52.083Z,17.20
2022-12-09T23:04:14.716Z,13.05
2022-12-09T23:09:35.666Z,18.55
2022-12-09T23:14:56.537Z,18.65
2022-12-09T23:20:17.568Z,17.20
2022-12-09T23:25:38.784Z,17.75
2022-12-09T23:31:02.070Z,18.42
2022-12-09T23:36:26.371Z,14.95
2022-12-09T23:41:48.219Z,16.30
2022-12-09T23:47:09.074Z,15.45
2022-12-09T23:52:29.790Z,14.63
2022-12-09T23:57:50.474Z,15.82
